Time;durP1;ratioP1;P1;durP2;ratioP2;P2;SDS_P1;SDS_P2;PMS_P1;PMS_P2;Temp;Humidity;BMP_temperature;BMP_pressure;BME280_temperature;BME280_humidity;BME280_pressure;Samples;Min_cycle;Max_cycle;Signal;HPM_P1;HPM_P2
2023/05/13 00:00:31;;;;;;;16.98;15.20;;;17.00;99.90;;;;;;5031497;28;20085;-85
2023/05/13 00:02:56;;;;;;;17.33;15.63;;;16.40;99.90;;;;;;5030525;28;20110;-84
2023/05/13 00:05:22;;;;;;;15.75;14.23;;;16.50;99.90;;;;;;5030992;28;20033;-85
2023/05/13 00:07:47;;;;;;;15.70;14.30;;;16.50;99.90;;;;;;5030869;28;20488;-84
2023/05/13 00:10:15;;;;;;;18.05;14.73;;;16.50;99.90;;;;;;5030479;28;20029;-85
2023/05/13 00:12:40;;;;;;;15.18;13.85;;;16.40;99.90;;;;;;5030944;28;20384;-84
2023/05/13 00:15:06;;;;;;;14.73;13.02;;;16.40;99.90;;;;;;5030995;28;20026;-83
2023/05/13 00:17:32;;;;;;;15.07;13.52;;;16.40;99.90;;;;;;5030089;28;20037;-84
2023/05/13 00:19:58;;;;;;;14.60;13.23;;;16.40;99.90;;;;;;5031273;28;20022;-84
2023/05/13 00:22:23;;;;;;;14.50;13.20;;;16.70;99.90;;;;;;5030559;28;20034;-83
2023/05/13 00:24:49;;;;;;;14.25;13.05;;;16.40;99.90;;;;;;5030913;28;20028;-84
2023/05/13 00:27:14;;;;;;;13.50;12.35;;;16.40;99.90;;;;;;5030901;28;20061;-83
2023/05/13 00:29:40;;;;;;;17.48;12.63;;;16.30;99.90;;;;;;5032922;28;20029;-84
2023/05/13 00:32:06;;;;;;;12.98;11.88;;;16.40;99.90;;;;;;5031144;28;20022;-83
2023/05/13 00:34:31;;;;;;;13.00;11.70;;;16.30;99.90;;;;;;5030900;28;20113;-83
2023/05/13 00:36:57;;;;;;;13.65;12.27;;;16.30;99.90;;;;;;5030353;28;20070;-83
2023/05/13 00:39:23;;;;;;;12.93;11.65;;;16.30;99.90;;;;;;5030853;28;20427;-84
2023/05/13 00:41:49;;;;;;;11.68;10.35;;;16.30;99.90;;;;;;5030515;28;20038;-83
2023/05/13 00:44:14;;;;;;;15.70;10.88;;;16.30;99.90;;;;;;5029883;28;20049;-83
2023/05/13 00:46:40;;;;;;;13.07;10.23;;;16.20;99.90;;;;;;5030619;28;20057;-84
2023/05/13 00:49:06;;;;;;;10.38;9.45;;;16.20;99.90;;;;;;5030410;28;20389;-84
2023/05/13 00:51:32;;;;;;;9.57;8.80;;;16.40;99.90;;;;;;5029817;28;20452;-83
2023/05/13 00:54:00;;;;;;;9.68;8.88;;;16.20;99.90;;;;;;5030347;28;20112;-83
2023/05/13 00:56:26;;;;;;;10.13;9.18;;;16.30;99.90;;;;;;5030657;28;20065;-83
2023/05/13 00:58:51;;;;;;;10.13;8.43;;;16.20;99.90;;;;;;5029574;28;20053;-84
2023/05/13 01:01:33;;;;;;;10.55;9.30;;;16.20;99.90;;;;;;5030296;28;20030;-84
2023/05/13 01:04:05;;;;;;;8.38;7.47;;;16.60;99.90;;;;;;5030552;28;20108;-84
2023/05/13 01:07:11;;;;;;;10.02;7.53;;;16.30;99.90;;;;;;5029905;28;20037;-83
2023/05/13 01:09:54;;;;;;;10.27;8.10;;;16.30;99.90;;;;;;5029885;28;20121;-83
2023/05/13 01:12:27;;;;;;;10.85;8.15;;;16.20;99.90;;;;;;5029789;28;20096;-84
2023/05/13 01:15:10;;;;;;;9.60;8.23;;;16.30;99.90;;;;;;5030363;28;20025;-84
2023/05/13 01:17:56;;;;;;;10.10;8.43;;;16.10;99.90;;;;;;5030139;28;20051;-84
2023/05/13 01:20:22;;;;;;;9.32;8.10;;;16.00;99.90;;;;;;5029451;28;20385;-83
2023/05/13 01:22:48;;;;;;;9.32;7.72;;;16.00;99.90;;;;;;5030338;28;20018;-83
2023/05/13 01:25:14;;;;;;;10.55;7.82;;;15.90;99.90;;;;;;5028643;28;20075;-84
2023/05/13 01:27:40;;;;;;;8.15;7.15;;;15.90;99.90;;;;;;5028981;28;20030;-84
2023/05/13 01:30:08;;;;;;;7.63;7.03;;;16.00;99.90;;;;;;5029672;28;20022;-85
2023/05/13 01:32:35;;;;;;;9.30;7.13;;;15.90;99.90;;;;;;5029526;28;20029;-85
2023/05/13 01:35:01;;;;;;;6.55;6.05;;;16.00;99.90;;;;;;5029106;28;20485;-85
2023/05/13 01:37:28;;;;;;;8.93;6.65;;;16.00;99.90;;;;;;5030087;28;20068;-84
2023/05/13 01:39:54;;;;;;;7.57;6.47;;;15.90;99.90;;;;;;5029210;28;20030;-85
2023/05/13 01:42:21;;;;;;;8.18;6.63;;;15.90;99.90;;;;;;5029463;28;20064;-84
2023/05/13 01:44:47;;;;;;;9.82;7.15;;;15.90;99.90;;;;;;5029526;28;20376;-85
2023/05/13 01:47:14;;;;;;;11.30;6.43;;;15.80;99.90;;;;;;5029255;28;20059;-84
2023/05/13 01:49:40;;;;;;;11.70;6.80;;;15.80;99.90;;;;;;5029924;28;20025;-85
2023/05/13 01:52:05;;;;;;;8.80;6.40;;;15.70;99.90;;;;;;5033753;28;20025;-84
2023/05/13 01:54:31;;;;;;;7.18;6.47;;;15.60;99.90;;;;;;5029295;28;20021;-84
2023/05/13 01:56:56;;;;;;;13.68;7.57;;;15.50;99.90;;;;;;5029723;28;20057;-84
2023/05/13 01:59:22;;;;;;;7.65;7.05;;;15.50;99.90;;;;;;5029982;28;20491;-84
2023/05/13 02:01:47;;;;;;;8.25;7.55;;;15.50;99.90;;;;;;5028824;28;20044;-84
2023/05/13 02:04:13;;;;;;;9.02;8.02;;;15.50;99.90;;;;;;5029655;28;20029;-84
2023/05/13 02:06:38;;;;;;;9.00;8.20;;;15.50;99.90;;;;;;5029438;28;20038;-84
2023/05/13 02:09:04;;;;;;;10.50;8.18;;;15.50;99.90;;;;;;5029079;28;20017;-84
2023/05/13 02:11:29;;;;;;;9.27;8.43;;;15.50;99.90;;;;;;5029679;28;20025;-84
2023/05/13 02:13:55;;;;;;;14.32;9.55;;;15.50;99.90;;;;;;5029339;28;20024;-84
2023/05/13 02:16:21;;;;;;;11.20;9.57;;;15.30;99.90;;;;;;5028851;28;20026;-84
2023/05/13 02:18:46;;;;;;;13.57;9.65;;;15.30;99.90;;;;;;5029238;28;20450;-84
2023/05/13 02:21:12;;;;;;;13.52;9.05;;;15.30;99.90;;;;;;5029478;28;20026;-84
2023/05/13 02:23:37;;;;;;;10.30;9.30;;;15.20;99.90;;;;;;5028388;28;20033;-85
2023/05/13 02:26:03;;;;;;;10.25;9.40;;;15.20;99.90;;;;;;5029480;28;20041;-84
2023/05/13 02:28:28;;;;;;;9.80;8.90;;;15.20;99.90;;;;;;5029706;28;20484;-84
2023/05/13 02:30:54;;;;;;;10.93;8.85;;;15.10;99.90;;;;;;5031409;28;20032;-84
2023/05/13 02:33:20;;;;;;;9.65;8.77;;;15.00;99.90;;;;;;5032887;28;20541;-84
2023/05/13 02:35:45;;;;;;;12.25;9.05;;;14.90;99.90;;;;;;5032500;28;20527;-85
2023/05/13 02:38:11;;;;;;;9.90;8.85;;;14.90;99.90;;;;;;5032110;28;20021;-84
2023/05/13 02:40:37;;;;;;;12.23;10.07;;;14.80;99.90;;;;;;5032610;28;20030;-85
2023/05/13 02:43:02;;;;;;;10.98;8.82;;;14.80;99.90;;;;;;5031442;28;20122;-84
2023/05/13 02:45:28;;;;;;;10.20;9.20;;;14.90;99.90;;;;;;5032717;28;20053;-84
2023/05/13 02:47:54;;;;;;;10.18;9.15;;;14.80;99.90;;;;;;5032191;28;20022;-84
2023/05/13 02:50:19;;;;;;;10.10;9.20;;;14.80;99.90;;;;;;5032232;28;20033;-84
2023/05/13 02:52:45;;;;;;;15.90;10.52;;;14.60;99.90;;;;;;5032037;28;20017;-84
2023/05/13 02:55:11;;;;;;;10.82;9.60;;;14.70;99.90;;;;;;5032024;28;20022;-84
2023/05/13 02:57:36;;;;;;;13.45;9.85;;;14.50;99.90;;;;;;5031180;28;20030;-84
2023/05/13 03:00:03;;;;;;;9.63;8.82;;;14.60;99.90;;;;;;5032255;28;20391;-83
2023/05/13 03:02:29;;;;;;;10.30;9.40;;;14.60;99.90;;;;;;5032072;28;20026;-84
2023/05/13 03:04:55;;;;;;;10.20;9.27;;;14.50;99.90;;;;;;5031381;28;20036;-84
2023/05/13 03:07:22;;;;;;;11.18;9.20;;;14.50;99.90;;;;;;5032414;28;20022;-84
2023/05/13 03:09:48;;;;;;;12.18;9.18;;;14.50;99.90;;;;;;5031778;28;20030;-84
2023/05/13 03:12:13;;;;;;;12.57;8.73;;;14.40;99.90;;;;;;5031755;28;20040;-84
2023/05/13 03:14:39;;;;;;;12.25;9.43;;;14.40;99.90;;;;;;5033863;28;20033;-84
2023/05/13 03:17:05;;;;;;;11.40;9.48;;;14.30;99.90;;;;;;5032240;28;20021;-84
2023/05/13 03:19:33;;;;;;;10.60;9.70;;;14.20;99.90;;;;;;5031398;28;20026;-84
2023/05/13 03:21:58;;;;;;;10.07;9.27;;;14.10;99.90;;;;;;5031908;28;20524;-84
2023/05/13 03:24:24;;;;;;;13.55;9.77;;;14.10;99.90;;;;;;5032021;28;20033;-85
2023/05/13 03:26:49;;;;;;;14.77;9.70;;;14.00;99.90;;;;;;5030983;28;20038;-85
2023/05/13 03:29:15;;;;;;;11.05;9.93;;;13.90;99.90;;;;;;5031745;28;20021;-84
2023/05/13 03:31:40;;;;;;;10.57;9.73;;;13.90;99.90;;;;;;5031918;28;20044;-84
2023/05/13 03:34:06;;;;;;;10.30;9.25;;;13.80;99.90;;;;;;5029807;28;20104;-84
2023/05/13 03:36:32;;;;;;;11.93;9.82;;;13.90;99.90;;;;;;5031646;28;20025;-84
2023/05/13 03:38:57;;;;;;;13.30;10.45;;;14.40;99.90;;;;;;5031941;28;20064;-84
2023/05/13 03:41:23;;;;;;;10.05;9.25;;;14.00;99.90;;;;;;5029982;28;20025;-84
2023/05/13 03:43:48;;;;;;;10.98;9.57;;;13.90;99.90;;;;;;5031006;28;20060;-84
2023/05/13 03:46:14;;;;;;;14.38;10.35;;;13.90;99.90;;;;;;5031756;28;20074;-84
2023/05/13 03:48:39;;;;;;;11.32;10.20;;;13.90;99.90;;;;;;5030770;28;20020;-84
2023/05/13 03:51:05;;;;;;;11.00;10.05;;;13.90;99.90;;;;;;5031696;28;20082;-84
2023/05/13 03:53:31;;;;;;;14.80;9.82;;;13.90;99.90;;;;;;5030878;28;20392;-83
2023/05/13 03:55:56;;;;;;;11.43;10.20;;;13.80;99.90;;;;;;5031297;28;20029;-84
2023/05/13 03:58:22;;;;;;;11.07;9.98;;;14.20;99.90;;;;;;5031390;28;20021;-84
2023/05/13 04:00:48;;;;;;;12.35;10.07;;;13.80;99.90;;;;;;5030575;28;20037;-84
2023/05/13 04:03:17;;;;;;;11.25;10.15;;;13.90;99.90;;;;;;5031582;28;20025;-84
2023/05/13 04:05:46;;;;;;;10.68;9.70;;;13.90;99.90;;;;;;5031281;28;20048;-83
2023/05/13 04:08:12;;;;;;;11.38;10.35;;;13.90;99.90;;;;;;5030838;28;20032;-84
2023/05/13 04:10:38;;;;;;;12.32;9.82;;;14.10;99.90;;;;;;5031412;28;20029;-84
2023/05/13 04:13:04;;;;;;;11.93;10.75;;;14.10;99.90;;;;;;5031238;28;20017;-83
2023/05/13 04:15:30;;;;;;;13.25;10.27;;;14.10;99.90;;;;;;5030717;28;20022;-84
2023/05/13 04:17:56;;;;;;;14.60;11.48;;;13.90;99.90;;;;;;5031090;28;20028;-84
2023/05/13 04:20:22;;;;;;;13.98;11.73;;;13.90;99.90;;;;;;5031073;28;20061;-84
2023/05/13 04:22:48;;;;;;;16.10;11.32;;;13.80;99.90;;;;;;5030521;28;20049;-84
2023/05/13 04:25:14;;;;;;;13.80;12.25;;;13.70;99.90;;;;;;5031108;28;20029;-84
2023/05/13 04:27:39;;;;;;;14.07;12.20;;;13.60;99.90;;;;;;5030627;28;20032;-84
2023/05/13 04:30:05;;;;;;;13.55;12.25;;;13.50;99.90;;;;;;5030606;28;20018;-84
2023/05/13 04:32:33;;;;;;;13.48;12.13;;;13.50;99.90;;;;;;5030610;28;20034;-84
2023/05/13 04:34:58;;;;;;;16.60;12.23;;;13.50;99.90;;;;;;5031173;28;20144;-84
2023/05/13 04:37:25;;;;;;;14.70;13.18;;;13.50;99.90;;;;;;5032494;28;20590;-84
2023/05/13 04:39:51;;;;;;;13.02;11.82;;;13.60;99.90;;;;;;5030398;28;20473;-84
2023/05/13 04:42:16;;;;;;;14.40;12.93;;;13.70;99.90;;;;;;5030535;28;20093;-84
2023/05/13 04:44:42;;;;;;;17.77;12.82;;;13.70;99.90;;;;;;5029882;28;20864;-84
2023/05/13 04:47:08;;;;;;;18.23;13.07;;;13.80;99.90;;;;;;5030929;28;20030;-84
2023/05/13 04:49:33;;;;;;;15.90;13.18;;;13.80;99.90;;;;;;5030229;28;20074;-84
2023/05/13 04:52:03;;;;;;;14.60;13.20;;;13.80;99.90;;;;;;5029628;28;20022;-85
2023/05/13 04:54:29;;;;;;;14.20;12.77;;;13.70;99.90;;;;;;5030488;28;20030;-84
2023/05/13 04:56:55;;;;;;;17.48;13.25;;;13.70;99.90;;;;;;5029448;28;20366;-84
2023/05/13 04:59:21;;;;;;;14.55;13.00;;;13.70;99.90;;;;;;5029133;28;20081;-84
2023/05/13 05:01:48;;;;;;;14.60;13.10;;;13.70;99.90;;;;;;5030380;28;20388;-84
2023/05/13 05:04:14;;;;;;;13.82;12.50;;;13.70;99.90;;;;;;5029961;28;20029;-84
2023/05/13 05:06:39;;;;;;;14.93;13.25;;;13.80;99.90;;;;;;5029827;28;20369;-85
2023/05/13 05:09:05;;;;;;;16.80;13.70;;;13.80;99.90;;;;;;5029947;28;20098;-84
2023/05/13 05:11:31;;;;;;;13.57;12.18;;;13.70;99.90;;;;;;5029352;28;20078;-84
2023/05/13 05:13:56;;;;;;;14.30;12.93;;;13.80;99.90;;;;;;5030027;28;20389;-84
2023/05/13 05:16:22;;;;;;;16.75;13.55;;;13.90;99.90;;;;;;5030076;28;20029;-83
2023/05/13 05:18:48;;;;;;;20.10;13.68;;;13.90;99.90;;;;;;5029478;28;20025;-84
2023/05/13 05:21:13;;;;;;;15.73;12.60;;;13.90;99.90;;;;;;5030070;28;20032;-84
2023/05/13 05:23:39;;;;;;;15.02;13.32;;;14.50;99.90;;;;;;5030177;28;20109;-84
2023/05/13 05:26:04;;;;;;;13.68;12.27;;;14.00;99.90;;;;;;5029217;28;20069;-85
2023/05/13 05:28:30;;;;;;;14.93;13.27;;;14.00;99.90;;;;;;5030020;28;20021;-84
2023/05/13 05:30:56;;;;;;;14.10;12.80;;;14.10;99.90;;;;;;5029403;28;20067;-84
2023/05/13 05:33:22;;;;;;;14.48;13.02;;;14.30;99.90;;;;;;5029239;28;20030;-85
2023/05/13 05:35:47;;;;;;;15.40;13.77;;;14.20;99.90;;;;;;5029387;28;20029;-84
2023/05/13 05:38:13;;;;;;;14.35;12.93;;;14.20;99.90;;;;;;5029809;28;20025;-84
2023/05/13 05:40:40;;;;;;;17.77;14.05;;;14.20;99.90;;;;;;5028851;28;20036;-83
2023/05/13 05:43:07;;;;;;;15.40;13.82;;;14.70;99.90;;;;;;5029815;28;20041;-85
2023/05/13 05:45:35;;;;;;;15.40;14.00;;;14.30;99.90;;;;;;5029729;28;20116;-84
2023/05/13 05:48:01;;;;;;;15.93;14.25;;;14.20;99.90;;;;;;5028953;28;20021;-85
2023/05/13 05:50:27;;;;;;;15.82;14.15;;;14.20;99.90;;;;;;5029906;28;20025;-84
2023/05/13 05:52:54;;;;;;;15.52;13.90;;;14.30;99.90;;;;;;5029056;28;20090;-84
2023/05/13 05:55:20;;;;;;;21.85;14.13;;;14.30;99.90;;;;;;5029183;28;20061;-84
2023/05/13 05:57:45;;;;;;;16.33;13.88;;;14.40;99.90;;;;;;5029646;28;20064;-85
2023/05/13 06:00:12;;;;;;;16.35;14.80;;;14.50;99.90;;;;;;5030549;28;20582;-85
2023/05/13 06:02:37;;;;;;;15.48;13.55;;;14.50;99.90;;;;;;5029168;28;20037;-85
2023/05/13 06:05:03;;;;;;;19.05;15.07;;;14.60;99.90;;;;;;5028787;28;20022;-85
2023/05/13 06:07:29;;;;;;;16.92;15.18;;;14.60;99.90;;;;;;5028528;28;20120;-85
2023/05/13 06:09:54;;;;;;;18.88;14.57;;;14.50;99.90;;;;;;5029188;28;20163;-85
2023/05/13 06:12:21;;;;;;;19.80;14.15;;;14.60;99.90;;;;;;5029248;28;20041;-85
2023/05/13 06:14:47;;;;;;;17.13;14.50;;;14.60;99.90;;;;;;5028590;28;20036;-85
2023/05/13 06:17:13;;;;;;;18.83;14.27;;;14.60;99.90;;;;;;5029649;28;20033;-85
2023/05/13 06:19:41;;;;;;;14.55;13.30;;;14.70;99.90;;;;;;5029093;28;20053;-85
2023/05/13 06:22:07;;;;;;;18.15;15.02;;;14.80;99.90;;;;;;5028716;28;20108;-85
2023/05/13 06:24:33;;;;;;;16.00;13.98;;;14.80;99.90;;;;;;5029167;28;20032;-85
2023/05/13 06:26:58;;;;;;;20.70;13.55;;;14.80;99.90;;;;;;5029315;28;20041;-85
2023/05/13 06:29:24;;;;;;;15.40;13.80;;;14.90;99.90;;;;;;5028866;28;20075;-84
2023/05/13 06:31:49;;;;;;;17.23;13.00;;;14.80;99.90;;;;;;5028907;28;20098;-85
2023/05/13 06:34:15;;;;;;;15.40;13.15;;;14.90;99.90;;;;;;5030098;28;20101;-85
2023/05/13 06:36:41;;;;;;;16.60;12.05;;;14.90;99.90;;;;;;5028156;28;20029;-84
2023/05/13 06:39:07;;;;;;;17.75;12.82;;;14.90;99.90;;;;;;5028927;28;20032;-84
2023/05/13 06:41:33;;;;;;;16.25;12.50;;;15.00;99.90;;;;;;5029057;28;20105;-85
2023/05/13 06:43:58;;;;;;;13.63;12.38;;;15.00;99.90;;;;;;5028337;28;20130;-85
2023/05/13 06:46:24;;;;;;;18.55;12.50;;;15.00;99.90;;;;;;5029035;28;20037;-84
2023/05/13 06:48:51;;;;;;;15.82;12.73;;;15.10;99.90;;;;;;5028865;28;20027;-85
2023/05/13 06:51:17;;;;;;;13.25;11.88;;;15.10;99.90;;;;;;5028125;28;20117;-85
2023/05/13 06:53:42;;;;;;;17.42;11.30;;;15.20;99.90;;;;;;5028850;28;20109;-85
2023/05/13 06:56:08;;;;;;;19.75;13.20;;;15.20;99.90;;;;;;5029171;28;20037;-85
2023/05/13 06:58:33;;;;;;;13.02;11.77;;;15.20;99.90;;;;;;5028074;28;20024;-84
2023/05/13 07:00:59;;;;;;;13.95;11.57;;;15.30;99.90;;;;;;5028885;28;20040;-85
2023/05/13 07:03:25;;;;;;;15.70;12.25;;;15.50;99.90;;;;;;5028564;28;20117;-85
2023/05/13 07:05:50;;;;;;;12.20;11.07;;;15.30;99.90;;;;;;5028447;28;20029;-85
2023/05/13 07:08:17;;;;;;;12.02;10.75;;;15.30;99.90;;;;;;5028939;28;20448;-85
2023/05/13 07:10:43;;;;;;;12.93;10.70;;;15.30;99.90;;;;;;5028008;28;20025;-85
2023/05/13 07:13:10;;;;;;;12.73;10.40;;;15.40;99.90;;;;;;5028730;28;20429;-85
2023/05/13 07:15:35;;;;;;;15.00;10.85;;;15.40;99.90;;;;;;5029560;28;20488;-85
2023/05/13 07:18:01;;;;;;;12.20;10.90;;;15.50;99.90;;;;;;5031371;28;20072;-85
2023/05/13 07:20:27;;;;;;;13.40;12.10;;;15.50;99.90;;;;;;5031950;28;20030;-85
2023/05/13 07:22:52;;;;;;;16.75;11.80;;;15.50;99.90;;;;;;5032282;28;20147;-85
2023/05/13 07:25:18;;;;;;;14.80;10.73;;;15.50;99.90;;;;;;5031121;28;20026;-85
2023/05/13 07:27:44;;;;;;;12.65;11.23;;;15.60;99.90;;;;;;5031841;28;20025;-85
2023/05/13 07:30:11;;;;;;;12.52;11.30;;;15.60;99.90;;;;;;5032116;28;20036;-84
2023/05/13 07:32:37;;;;;;;12.25;11.02;;;15.60;99.90;;;;;;5030957;28;20477;-85
2023/05/13 07:35:04;;;;;;;12.18;10.77;;;15.60;99.90;;;;;;5032019;28;20029;-85
2023/05/13 07:37:29;;;;;;;19.48;12.68;;;15.70;99.90;;;;;;5031622;28;20037;-85
2023/05/13 07:39:55;;;;;;;20.33;10.57;;;15.70;99.90;;;;;;5031084;28;20029;-85
2023/05/13 07:42:20;;;;;;;11.80;10.82;;;15.70;99.90;;;;;;5031540;28;20118;-84
2023/05/13 07:44:46;;;;;;;12.48;11.18;;;15.70;99.90;;;;;;5031607;28;20049;-84
2023/05/13 07:47:12;;;;;;;12.35;11.18;;;15.90;99.90;;;;;;5030712;28;20444;-85
2023/05/13 07:49:37;;;;;;;14.07;11.20;;;15.80;99.90;;;;;;5031295;28;20026;-85
2023/05/13 07:52:03;;;;;;;11.73;10.07;;;15.90;99.90;;;;;;5031400;28;20048;-85
2023/05/13 07:54:29;;;;;;;14.27;10.35;;;15.90;99.90;;;;;;5030468;28;20040;-85
2023/05/13 07:56:54;;;;;;;19.85;10.52;;;15.90;99.90;;;;;;5031190;28;20034;-85
2023/05/13 07:59:20;;;;;;;13.80;10.40;;;15.90;99.90;;;;;;5031592;28;20503;-85
2023/05/13 08:01:45;;;;;;;13.73;10.68;;;16.00;99.90;;;;;;5030533;28;20470;-85
2023/05/13 08:04:11;;;;;;;12.48;10.93;;;16.00;99.90;;;;;;5031661;28;20021;-85
2023/05/13 08:06:36;;;;;;;15.25;10.25;;;16.00;99.90;;;;;;5030253;28;20473;-85
2023/05/13 08:09:02;;;;;;;15.18;11.30;;;16.00;99.90;;;;;;5031493;28;20026;-85
2023/05/13 08:11:28;;;;;;;16.05;11.52;;;16.00;99.90;;;;;;5031471;28;20021;-85
2023/05/13 08:13:54;;;;;;;17.65;11.88;;;16.50;99.90;;;;;;5030343;28;20025;-84
2023/05/13 08:16:19;;;;;;;19.52;12.00;;;16.10;99.90;;;;;;5030960;28;20025;-85
2023/05/13 08:18:45;;;;;;;14.60;11.18;;;16.10;99.90;;;;;;5030757;28;20120;-85
2023/05/13 08:21:10;;;;;;;15.02;12.23;;;16.10;99.90;;;;;;5030721;28;20104;-85
2023/05/13 08:23:36;;;;;;;15.35;12.25;;;16.10;99.90;;;;;;5030920;28;20029;-85
2023/05/13 08:26:02;;;;;;;15.10;13.02;;;16.20;99.90;;;;;;5031011;28;20065;-85
2023/05/13 08:28:28;;;;;;;19.08;12.35;;;16.20;99.90;;;;;;5029252;28;20526;-85
2023/05/13 08:30:57;;;;;;;14.15;12.75;;;16.20;99.90;;;;;;5030941;28;20034;-85
2023/05/13 08:33:23;;;;;;;13.32;11.90;;;16.50;99.90;;;;;;5031259;28;20036;-86
2023/05/13 08:35:49;;;;;;;13.88;11.60;;;16.20;99.90;;;;;;5029476;28;20028;-85
2023/05/13 08:38:14;;;;;;;15.70;12.20;;;16.30;99.90;;;;;;5031215;28;20037;-85
2023/05/13 08:40:41;;;;;;;14.63;12.85;;;16.30;99.90;;;;;;5030799;28;20028;-85
2023/05/13 08:43:09;;;;;;;17.65;12.60;;;16.30;99.90;;;;;;5030834;28;20132;-84
2023/05/13 08:45:36;;;;;;;16.67;12.57;;;16.40;99.90;;;;;;5030913;28;20034;-85
2023/05/13 08:48:03;;;;;;;13.73;12.35;;;16.60;99.90;;;;;;5030663;28;20059;-85
2023/05/13 08:50:31;;;;;;;16.08;12.70;;;16.40;99.90;;;;;;5028885;28;20038;-85
2023/05/13 08:52:57;;;;;;;15.98;12.50;;;16.40;99.90;;;;;;5030299;28;20022;-85
2023/05/13 08:55:23;;;;;;;13.95;11.52;;;16.50;99.90;;;;;;5030709;28;20022;-85
2023/05/13 08:57:49;;;;;;;15.13;12.32;;;16.50;99.90;;;;;;5029707;28;20032;-85
2023/05/13 09:00:15;;;;;;;16.70;12.43;;;16.50;99.90;;;;;;5030660;28;20100;-85
2023/05/13 09:02:41;;;;;;;13.68;11.05;;;16.50;99.90;;;;;;5030256;28;20029;-85
2023/05/13 09:05:08;;;;;;;16.02;12.15;;;16.50;99.90;;;;;;5029593;28;20066;-85
2023/05/13 09:07:35;;;;;;;15.50;12.25;;;16.60;99.90;;;;;;5030525;28;20074;-85
2023/05/13 09:10:03;;;;;;;12.57;11.13;;;16.50;99.90;;;;;;5030722;28;20045;-84
2023/05/13 09:12:47;;;;;;;14.93;11.10;;;16.60;99.90;;;;;;5030289;28;20116;-84
2023/05/13 09:15:16;;;;;;;11.82;10.68;;;16.70;99.90;;;;;;5030087;28;20017;-84
2023/05/13 09:17:54;;;;;;;12.88;11.50;;;17.10;99.90;;;;;;5029171;28;20036;-85
2023/05/13 09:20:21;;;;;;;16.92;12.63;;;16.70;99.90;;;;;;5030282;28;20026;-84
2023/05/13 09:22:52;;;;;;;12.85;11.57;;;16.80;99.90;;;;;;5029640;28;20496;-84
2023/05/13 09:25:20;;;;;;;14.30;12.95;;;16.80;99.90;;;;;;5029321;28;20037;-84
2023/05/13 09:27:51;;;;;;;12.43;10.98;;;16.80;99.90;;;;;;5030094;28;20057;-85
2023/05/13 09:30:19;;;;;;;14.32;11.30;;;16.90;99.90;;;;;;5030278;28;20025;-85
2023/05/13 09:33:16;;;;;;;18.88;11.95;;;16.90;99.90;;;;;;5029293;28;20022;-85
2023/05/13 09:35:42;;;;;;;18.00;12.35;;;16.90;99.90;;;;;;5030150;28;20022;-84
2023/05/13 09:38:13;;;;;;;16.85;12.73;;;17.00;99.90;;;;;;5029035;28;20029;-84
2023/05/13 09:40:39;;;;;;;13.82;12.07;;;17.00;99.90;;;;;;5029168;28;20049;-84
2023/05/13 09:43:07;;;;;;;17.55;13.05;;;17.00;99.90;;;;;;5029909;28;20061;-84
2023/05/13 09:45:33;;;;;;;16.13;11.43;;;17.30;99.90;;;;;;5029063;28;20068;-85
2023/05/13 09:47:58;;;;;;;17.15;11.63;;;17.00;99.90;;;;;;5029734;28;20022;-84
2023/05/13 09:50:24;;;;;;;20.45;11.40;;;17.00;99.90;;;;;;5029682;28;20032;-85
2023/05/13 09:52:50;;;;;;;15.77;11.95;;;17.00;99.90;;;;;;5028470;28;20089;-84
2023/05/13 09:55:15;;;;;;;13.02;11.38;;;17.20;99.90;;;;;;5029714;28;20029;-85
2023/05/13 09:57:41;;;;;;;12.63;11.32;;;17.10;99.90;;;;;;5029605;28;20029;-84
2023/05/13 10:00:07;;;;;;;16.40;11.30;;;17.20;99.90;;;;;;5029067;28;20022;-83
2023/05/13 10:02:33;;;;;;;13.38;12.20;;;17.20;99.90;;;;;;5029634;28;20032;-84
2023/05/13 10:04:59;;;;;;;14.95;12.30;;;17.20;99.90;;;;;;5029583;28;20017;-84
2023/05/13 10:07:27;;;;;;;12.55;11.48;;;17.20;99.90;;;;;;5030262;28;20099;-84
2023/05/13 10:09:56;;;;;;;13.27;12.00;;;17.20;99.90;;;;;;5029125;28;20477;-83
2023/05/13 10:12:24;;;;;;;13.50;12.13;;;17.20;99.90;;;;;;5029544;28;20026;-84
2023/05/13 10:14:51;;;;;;;16.42;11.68;;;17.20;99.90;;;;;;5028858;28;20021;-86
2023/05/13 10:17:22;;;;;;;14.48;11.52;;;17.20;99.90;;;;;;5029626;28;20100;-86
2023/05/13 10:19:49;;;;;;;12.20;10.65;;;17.20;99.90;;;;;;5029365;28;20029;-86
2023/05/13 10:22:36;;;;;;;19.70;11.45;;;17.20;99.90;;;;;;5029110;28;20028;-85
2023/05/13 10:25:03;;;;;;;15.48;10.45;;;17.20;99.90;;;;;;5029240;28;20044;-85
2023/05/13 10:27:30;;;;;;;11.20;10.30;;;17.30;99.90;;;;;;5030135;28;20047;-83
2023/05/13 10:29:58;;;;;;;13.40;12.10;;;17.30;99.90;;;;;;5027879;28;20117;-86
2023/05/13 10:32:25;;;;;;;13.25;11.20;;;17.30;99.90;;;;;;5028091;28;20469;-85
2023/05/13 10:35:03;;;;;;;12.27;9.90;;;17.40;99.90;;;;;;5030204;28;20038;-86
2023/05/13 10:37:47;;;;;;;12.18;11.02;;;17.40;99.90;;;;;;5028857;28;20030;-85
2023/05/13 10:41:02;;;;;;;14.10;10.88;;;17.40;99.90;;;;;;5028996;28;20493;-86
2023/05/13 10:43:29;;;;;;;13.30;11.30;;;17.40;99.90;;;;;;5024660;28;20052;-85
2023/05/13 10:46:01;;;;;;;14.13;10.77;;;17.50;99.90;;;;;;5029105;28;20044;-85
2023/05/13 10:48:39;;;;;;;14.80;10.43;;;17.60;99.90;;;;;;5028791;28;20388;-85
2023/05/13 10:51:08;;;;;;;13.95;11.57;;;17.60;99.90;;;;;;5031377;28;20034;-85
2023/05/13 10:53:47;;;;;;;12.90;10.65;;;17.60;99.90;;;;;;5032893;28;20069;-85
2023/05/13 10:56:13;;;;;;;12.27;10.48;;;17.60;99.90;;;;;;5032160;28;20098;-85
2023/05/13 10:58:38;;;;;;;18.48;11.52;;;17.70;99.90;;;;;;5032302;28;20461;-85
2023/05/13 11:01:14;;;;;;;14.18;10.68;;;17.80;99.90;;;;;;5032257;28;20050;-85
2023/05/13 11:03:40;;;;;;;11.77;10.65;;;17.80;99.90;;;;;;5031778;28;20025;-85
2023/05/13 11:06:12;;;;;;;12.55;10.80;;;17.80;99.90;;;;;;5032518;28;20036;-85
2023/05/13 11:08:39;;;;;;;11.65;10.55;;;17.80;99.90;;;;;;5032090;28;20071;-84
2023/05/13 11:11:21;;;;;;;15.75;12.13;;;17.70;99.90;;;;;;5031499;28;20037;-85
2023/05/13 11:13:49;;;;;;;12.60;11.30;;;17.80;99.90;;;;;;5032099;28;20026;-86
2023/05/13 11:16:15;;;;;;;16.08;10.95;;;17.80;99.90;;;;;;5032123;28;20028;-86
2023/05/13 11:18:41;;;;;;;11.85;10.30;;;17.80;99.90;;;;;;5031166;28;20021;-86
2023/05/13 11:21:07;;;;;;;15.93;11.43;;;17.90;99.90;;;;;;5031847;28;20049;-86
2023/05/13 11:23:49;;;;;;;11.77;10.57;;;17.90;99.90;;;;;;5031364;28;20108;-86
2023/05/13 11:26:15;;;;;;;17.02;11.35;;;17.90;99.90;;;;;;5032306;28;20116;-85
2023/05/13 11:29:12;;;;;;;18.13;10.52;;;17.90;99.90;;;;;;5031936;28;20026;-85
2023/05/13 11:31:49;;;;;;;12.25;11.13;;;17.90;99.90;;;;;;5031151;28;20514;-85
2023/05/13 11:34:19;;;;;;;14.48;10.77;;;17.90;99.90;;;;;;5031854;28;20109;-85
2023/05/13 11:36:49;;;;;;;14.38;11.00;;;18.00;99.90;;;;;;5031546;28;20097;-85
2023/05/13 11:39:20;;;;;;;10.73;9.30;;;18.30;99.90;;;;;;5031228;28;20026;-85
2023/05/13 11:41:47;;;;;;;13.30;11.65;;;18.30;99.90;;;;;;5031513;28;20113;-85
2023/05/13 11:44:23;;;;;;;17.67;10.75;;;18.20;99.90;;;;;;5031415;28;20118;-85
2023/05/13 11:46:54;;;;;;;13.70;11.18;;;18.20;99.90;;;;;;5030585;28;20088;-85
2023/05/13 11:49:28;;;;;;;11.35;10.45;;;18.20;99.90;;;;;;5030274;28;20037;-85
2023/05/13 11:51:54;;;;;;;11.15;9.88;;;18.20;99.90;;;;;;5031042;28;20056;-85
2023/05/13 11:54:19;;;;;;;17.05;10.43;;;18.20;99.90;;;;;;5031503;28;20120;-85
2023/05/13 11:56:46;;;;;;;11.23;10.13;;;18.30;99.90;;;;;;5031080;28;20029;-85
2023/05/13 11:59:15;;;;;;;11.10;10.10;;;18.30;99.90;;;;;;5030805;28;20021;-86
2023/05/13 12:01:41;;;;;;;14.77;9.63;;;18.40;99.90;;;;;;5031582;28;20036;-85
2023/05/13 12:04:07;;;;;;;11.82;10.55;;;18.40;99.90;;;;;;5031087;28;20380;-84
2023/05/13 12:06:33;;;;;;;10.93;9.70;;;18.50;99.90;;;;;;5030637;28;20045;-85
2023/05/13 12:09:05;;;;;;;13.02;10.70;;;18.60;99.90;;;;;;5030942;28;20025;-85
2023/05/13 12:11:34;;;;;;;11.27;9.90;;;18.70;99.90;;;;;;5031548;28;20093;-85
2023/05/13 12:14:00;;;;;;;14.80;10.57;;;18.70;99.90;;;;;;5030807;28;20057;-85
2023/05/13 12:16:26;;;;;;;12.00;9.98;;;18.80;99.90;;;;;;5031089;28;20052;-85
2023/05/13 12:18:59;;;;;;;10.73;9.70;;;18.80;99.90;;;;;;5031166;28;20025;-85
2023/05/13 12:21:28;;;;;;;10.43;9.40;;;18.80;99.90;;;;;;5030722;28;20164;-85
2023/05/13 12:23:54;;;;;;;15.57;9.30;;;18.80;99.90;;;;;;5030696;28;20354;-85
2023/05/13 12:26:20;;;;;;;12.45;10.07;;;18.80;99.90;;;;;;5030908;28;20077;-85
2023/05/13 12:28:46;;;;;;;14.25;9.77;;;18.90;99.90;;;;;;5029967;28;20036;-85
2023/05/13 12:31:15;;;;;;;12.15;10.32;;;18.80;99.90;;;;;;5031176;28;20381;-85